Time;durP1;ratioP1;P1;durP2;ratioP2;P2;SDS_P1;SDS_P2;PMS_P1;PMS_P2;Temp;Humidity;BMP_temperature;BMP_pressure;BME280_temperature;BME280_humidity;BME280_pressure;Samples;Min_cycle;Max_cycle;Signal;HPM_P1;HPM_P2
2023/03/02 00:01:22;;;;;;;2.73;2.30;;;3.30;99.90;;;;;;5009626;28;20486;-71
2023/03/02 00:03:49;;;;;;;3.30;2.77;;;3.50;99.90;;;;;;5007831;28;20483;-70
2023/03/02 00:06:17;;;;;;;8.93;4.60;;;3.50;99.90;;;;;;5014253;28;20485;-70
2023/03/02 00:08:45;;;;;;;8.37;3.27;;;3.50;99.90;;;;;;5018486;28;20503;-70
2023/03/02 00:11:15;;;;;;;3.13;2.83;;;3.60;99.90;;;;;;5012110;28;20440;-70
2023/03/02 00:13:43;;;;;;;4.13;2.60;;;3.30;99.90;;;;;;5004316;28;20469;-71
2023/03/02 00:16:10;;;;;;;8.80;5.37;;;3.10;99.90;;;;;;5004035;28;21066;-71
2023/03/02 00:18:36;;;;;;;6.43;3.27;;;3.00;99.90;;;;;;5009292;28;20448;-71
2023/03/02 00:21:04;;;;;;;4.60;3.90;;;3.10;99.90;;;;;;5007525;28;20562;-70
2023/03/02 00:23:31;;;;;;;6.77;3.03;;;3.10;99.90;;;;;;4952487;28;20517;-70
2023/03/02 00:25:57;;;;;;;5.70;3.00;;;3.10;99.90;;;;;;5004300;28;20859;-70
2023/03/02 00:28:26;;;;;;;5.13;3.67;;;3.10;99.90;;;;;;5001477;28;20489;-70
2023/03/02 00:30:53;;;;;;;5.73;3.47;;;3.10;99.90;;;;;;4999954;28;20421;-69
2023/03/02 00:33:19;;;;;;;7.83;3.70;;;3.10;99.90;;;;;;5008212;28;20472;-70
2023/03/02 00:35:47;;;;;;;6.57;4.23;;;3.10;99.90;;;;;;5003244;28;20432;-70
2023/03/02 00:38:14;;;;;;;5.57;3.70;;;3.10;99.90;;;;;;5008258;28;20498;-70
2023/03/02 00:40:45;;;;;;;7.93;3.13;;;3.10;99.90;;;;;;5006994;28;20535;-70
2023/03/02 00:43:11;;;;;;;3.73;2.73;;;3.20;99.90;;;;;;5004135;28;20476;-70
2023/03/02 00:45:41;;;;;;;3.53;3.03;;;3.00;99.90;;;;;;5006854;28;20545;-70
2023/03/02 00:48:08;;;;;;;6.80;4.57;;;3.00;99.90;;;;;;5000536;28;20469;-70
2023/03/02 00:50:39;;;;;;;5.70;3.20;;;2.80;99.90;;;;;;5006436;28;20443;-70
2023/03/02 00:53:07;;;;;;;6.20;2.70;;;2.70;99.90;;;;;;5007153;28;20461;-70
2023/03/02 00:55:33;;;;;;;5.70;3.70;;;2.70;99.90;;;;;;5008662;28;20454;-70
2023/03/02 00:58:01;;;;;;;8.43;4.43;;;2.70;99.90;;;;;;5011723;28;20482;-70
2023/03/02 01:00:29;;;;;;;7.60;3.50;;;2.70;99.90;;;;;;5013144;28;20481;-69
2023/03/02 01:02:59;;;;;;;9.23;4.13;;;2.80;99.90;;;;;;5008758;28;20481;-70
2023/03/02 01:05:26;;;;;;;14.70;3.17;;;2.60;99.90;;;;;;5008476;28;20556;-70
2023/03/02 01:07:53;;;;;;;9.70;3.83;;;2.60;99.90;;;;;;5005519;28;20536;-70
2023/03/02 01:10:20;;;;;;;4.17;2.93;;;2.60;99.90;;;;;;5009208;28;20439;-70
2023/03/02 01:12:47;;;;;;;6.80;4.00;;;2.60;99.90;;;;;;5006727;28;20475;-70
2023/03/02 01:15:14;;;;;;;11.63;3.47;;;2.60;99.90;;;;;;5008095;28;20493;-70
2023/03/02 01:17:42;;;;;;;5.40;3.27;;;2.60;99.90;;;;;;5007549;28;20565;-70
2023/03/02 01:20:12;;;;;;;7.73;3.17;;;2.50;99.90;;;;;;5009871;28;20556;-70
2023/03/02 01:22:39;;;;;;;6.60;2.87;;;2.60;99.90;;;;;;5007504;28;21015;-70
2023/03/02 01:25:06;;;;;;;5.57;3.77;;;2.60;99.90;;;;;;5001669;28;20436;-70
2023/03/02 01:27:33;;;;;;;5.13;3.20;;;2.40;99.90;;;;;;5014329;28;20564;-69
2023/03/02 01:30:00;;;;;;;6.07;3.37;;;2.40;99.90;;;;;;5017301;28;21024;-70
2023/03/02 01:32:27;;;;;;;5.93;2.93;;;2.40;99.90;;;;;;5011362;28;20569;-70
2023/03/02 01:34:57;;;;;;;5.33;3.10;;;2.40;99.90;;;;;;5005791;28;20539;-69
2023/03/02 01:37:26;;;;;;;9.67;2.83;;;2.40;99.90;;;;;;5005141;28;20868;-70
2023/03/02 01:39:52;;;;;;;6.60;3.53;;;2.40;99.90;;;;;;5006265;28;20446;-69
2023/03/02 01:42:20;;;;;;;4.70;3.37;;;2.40;99.90;;;;;;5004962;28;20437;-72
2023/03/02 01:44:48;;;;;;;3.43;2.60;;;2.40;99.90;;;;;;5006977;28;20439;-70
2023/03/02 01:47:19;;;;;;;4.73;2.63;;;2.50;99.90;;;;;;5003158;28;20505;-70
2023/03/02 01:49:49;;;;;;;3.87;3.10;;;2.40;99.90;;;;;;5008206;28;20464;-70
2023/03/02 01:52:17;;;;;;;5.73;3.93;;;2.40;99.90;;;;;;5008762;28;20477;-70
2023/03/02 01:54:48;;;;;;;2.47;1.60;;;2.40;99.90;;;;;;5009417;28;20436;-69
2023/03/02 01:57:22;;;;;;;8.93;3.33;;;2.40;99.90;;;;;;5001689;28;21010;-70
2023/03/02 01:59:53;;;;;;;9.00;3.60;;;2.40;99.90;;;;;;5012327;28;20537;-70
2023/03/02 02:02:20;;;;;;;2.63;2.30;;;2.30;99.90;;;;;;5004976;28;20464;-70
2023/03/02 02:04:48;;;;;;;8.30;4.10;;;2.40;99.90;;;;;;5009014;28;20464;-70
2023/03/02 02:07:16;;;;;;;6.10;3.43;;;2.40;99.90;;;;;;5003706;28;20527;-70
2023/03/02 02:09:47;;;;;;;8.80;4.40;;;2.30;99.90;;;;;;5019033;28;20462;-70
2023/03/02 02:12:16;;;;;;;3.13;2.83;;;2.40;99.90;;;;;;5007718;28;20461;-70
2023/03/02 02:14:45;;;;;;;3.10;2.60;;;2.40;99.90;;;;;;5009445;28;20508;-70
2023/03/02 02:17:13;;;;;;;4.40;2.50;;;2.30;99.90;;;;;;5007845;28;20456;-70
2023/03/02 02:20:05;;;;;;;6.83;3.00;;;2.30;99.90;;;;;;5004237;28;20495;-70
2023/03/02 02:22:40;;;;;;;4.50;4.03;;;2.30;99.90;;;;;;5009713;28;20424;-70
2023/03/02 02:25:20;;;;;;;3.20;2.90;;;2.30;99.90;;;;;;5006393;28;20451;-70
2023/03/02 02:27:49;;;;;;;2.73;2.20;;;2.40;99.90;;;;;;5008000;28;20884;-70
2023/03/02 02:30:18;;;;;;;3.40;2.97;;;2.40;99.90;;;;;;5010348;28;20420;-70
2023/03/02 02:32:46;;;;;;;4.23;2.40;;;2.40;99.90;;;;;;5002601;28;20460;-70
2023/03/02 02:35:17;;;;;;;5.13;3.83;;;2.50;99.90;;;;;;4998510;28;20458;-70
2023/03/02 02:37:47;;;;;;;6.57;2.20;;;2.30;99.90;;;;;;5009697;28;20490;-70
2023/03/02 02:40:18;;;;;;;5.17;3.90;;;2.20;99.90;;;;;;5007585;28;20497;-70
2023/03/02 02:42:48;;;;;;;4.17;2.03;;;2.30;99.90;;;;;;5007259;28;20541;-70
2023/03/02 02:45:24;;;;;;;3.83;2.80;;;2.30;99.90;;;;;;5009385;28;20469;-70
2023/03/02 02:47:52;;;;;;;5.17;2.63;;;2.20;99.90;;;;;;5009646;28;20474;-70
2023/03/02 02:50:25;;;;;;;2.87;2.20;;;2.30;99.90;;;;;;5015937;28;20485;-70
2023/03/02 02:53:00;;;;;;;5.33;2.80;;;2.30;99.90;;;;;;5002755;28;20458;-70
2023/03/02 02:55:27;;;;;;;4.93;2.60;;;2.30;99.90;;;;;;5003890;28;20560;-70
2023/03/02 02:57:57;;;;;;;5.13;3.30;;;2.30;99.90;;;;;;5008967;28;20463;-69
2023/03/02 03:00:26;;;;;;;3.23;1.90;;;2.30;99.90;;;;;;5004290;28;20463;-70
2023/03/02 03:03:00;;;;;;;8.50;3.37;;;2.20;99.90;;;;;;4992794;28;20874;-70
2023/03/02 03:05:26;;;;;;;6.57;2.00;;;2.20;99.90;;;;;;5006725;28;20475;-70
2023/03/02 03:08:05;;;;;;;3.43;2.90;;;2.20;99.90;;;;;;5003362;28;20544;-71
2023/03/02 03:10:38;;;;;;;10.07;2.80;;;2.20;99.90;;;;;;5014649;28;20965;-70
2023/03/02 03:13:06;;;;;;;7.53;3.13;;;2.20;99.90;;;;;;5003933;28;20456;-70
2023/03/02 03:15:34;;;;;;;7.20;3.13;;;2.20;99.90;;;;;;5002919;28;20461;-70
2023/03/02 03:18:01;;;;;;;5.07;2.40;;;2.30;99.90;;;;;;5012431;28;20576;-70
2023/03/02 03:20:29;;;;;;;6.10;2.60;;;2.20;99.90;;;;;;5011399;28;20472;-70
2023/03/02 03:22:58;;;;;;;3.23;2.93;;;2.20;99.90;;;;;;5005292;28;20443;-70
2023/03/02 03:25:26;;;;;;;6.67;3.27;;;2.20;99.90;;;;;;5006886;28;20458;-70
2023/03/02 03:27:53;;;;;;;3.40;2.10;;;2.10;99.90;;;;;;5011041;28;20492;-70
2023/03/02 03:30:21;;;;;;;3.70;2.70;;;2.00;99.90;;;;;;5009106;28;20464;-70
2023/03/02 03:32:49;;;;;;;4.20;3.33;;;2.00;99.90;;;;;;5007922;28;20435;-70
2023/03/02 03:35:16;;;;;;;5.93;2.70;;;2.00;99.90;;;;;;5004661;28;20416;-70
2023/03/02 03:37:44;;;;;;;5.47;3.33;;;1.90;99.90;;;;;;5005835;28;20773;-70
2023/03/02 03:40:11;;;;;;;4.30;3.60;;;1.90;99.90;;;;;;5006447;28;20469;-70
2023/03/02 03:42:38;;;;;;;4.27;3.10;;;1.90;99.90;;;;;;5004265;28;20882;-70
2023/03/02 03:45:07;;;;;;;7.20;2.60;;;1.90;99.90;;;;;;5006539;28;20443;-70
2023/03/02 03:47:34;;;;;;;5.23;2.83;;;1.90;99.90;;;;;;5001777;28;20481;-70
2023/03/02 03:50:02;;;;;;;6.60;2.70;;;1.90;99.90;;;;;;5007711;28;20552;-70
2023/03/02 03:52:30;;;;;;;2.70;2.00;;;1.90;99.90;;;;;;5017085;28;20545;-70
2023/03/02 03:54:58;;;;;;;3.83;3.17;;;1.90;99.90;;;;;;5001998;28;21025;-70
2023/03/02 03:57:25;;;;;;;2.93;2.50;;;2.00;99.90;;;;;;5007909;28;20857;-70
2023/03/02 03:59:52;;;;;;;3.40;3.07;;;2.00;99.90;;;;;;5003124;28;20539;-70
2023/03/02 04:02:19;;;;;;;2.70;1.90;;;2.00;99.90;;;;;;5003333;28;20903;-70
2023/03/02 04:04:46;;;;;;;3.70;3.10;;;2.00;99.90;;;;;;5002355;28;20810;-70
2023/03/02 04:07:15;;;;;;;7.70;2.50;;;2.00;99.90;;;;;;5000048;28;20471;-70
2023/03/02 04:09:41;;;;;;;4.53;3.00;;;1.90;99.90;;;;;;4999048;28;20459;-70
2023/03/02 04:12:09;;;;;;;3.60;3.20;;;1.90;99.90;;;;;;5002957;28;20494;-70
2023/03/02 04:14:36;;;;;;;2.30;2.10;;;1.90;99.90;;;;;;5000856;28;20432;-70
2023/03/02 04:17:04;;;;;;;4.33;2.23;;;1.80;99.90;;;;;;5000137;28;20538;-71
2023/03/02 04:19:31;;;;;;;5.33;2.50;;;1.80;99.90;;;;;;5002886;28;20462;-70
2023/03/02 04:22:00;;;;;;;2.83;2.30;;;1.70;99.90;;;;;;5006187;28;20525;-71
2023/03/02 04:24:28;;;;;;;4.87;3.00;;;1.50;99.90;;;;;;5011761;28;20464;-70
2023/03/02 04:26:55;;;;;;;2.57;2.30;;;1.60;99.90;;;;;;5010637;28;20472;-70
2023/03/02 04:29:22;;;;;;;4.50;3.30;;;1.60;99.90;;;;;;5008761;28;20464;-70
2023/03/02 04:31:49;;;;;;;6.10;1.60;;;1.70;99.90;;;;;;5012637;28;20443;-70
2023/03/02 04:34:16;;;;;;;3.53;2.63;;;1.70;99.90;;;;;;5011091;28;20508;-70
2023/03/02 04:36:44;;;;;;;4.93;2.97;;;1.70;99.90;;;;;;5013844;28;20897;-70
2023/03/02 04:39:13;;;;;;;3.30;2.90;;;1.60;99.90;;;;;;5013329;28;21004;-70
2023/03/02 04:41:48;;;;;;;4.03;2.77;;;1.60;99.90;;;;;;5008056;28;20454;-70
2023/03/02 04:44:16;;;;;;;4.47;2.70;;;1.60;99.90;;;;;;5008119;28;20456;-70
2023/03/02 04:46:43;;;;;;;4.67;3.23;;;1.60;99.90;;;;;;5005823;28;20509;-70
2023/03/02 04:49:10;;;;;;;4.23;2.60;;;1.60;99.90;;;;;;5014661;28;20458;-70
2023/03/02 04:51:40;;;;;;;3.17;1.50;;;1.60;99.90;;;;;;5006970;28;20461;-71
2023/03/02 04:54:11;;;;;;;4.03;2.83;;;1.60;99.90;;;;;;5006453;28;20523;-70
2023/03/02 04:56:38;;;;;;;5.83;4.00;;;1.50;99.90;;;;;;5011808;28;21013;-70
2023/03/02 04:59:06;;;;;;;3.13;2.43;;;1.50;99.90;;;;;;5017057;28;20466;-70
2023/03/02 05:01:33;;;;;;;4.90;2.17;;;1.60;99.90;;;;;;5009114;28;20534;-71
2023/03/02 05:04:00;;;;;;;2.50;2.30;;;1.60;99.90;;;;;;5008389;28;20465;-70
2023/03/02 05:06:27;;;;;;;1.97;1.77;;;1.50;99.90;;;;;;5011949;28;20849;-71
2023/03/02 05:08:58;;;;;;;3.80;2.33;;;1.50;99.90;;;;;;5009587;28;20484;-71
2023/03/02 05:11:26;;;;;;;5.13;3.67;;;1.50;99.90;;;;;;5003940;28;20461;-71
2023/03/02 05:13:54;;;;;;;6.93;2.60;;;1.50;99.90;;;;;;5013204;28;20463;-71
2023/03/02 05:16:23;;;;;;;2.87;1.73;;;1.50;99.90;;;;;;5010462;28;20904;-71
2023/03/02 05:18:51;;;;;;;6.60;2.60;;;1.60;99.90;;;;;;5011018;28;20452;-71
2023/03/02 05:21:21;;;;;;;5.57;3.73;;;1.60;99.90;;;;;;5013218;28;20575;-71
2023/03/02 05:23:48;;;;;;;5.53;2.93;;;1.60;99.90;;;;;;5008574;28;20512;-71
2023/03/02 05:26:16;;;;;;;3.43;2.23;;;1.50;99.90;;;;;;5009938;28;20560;-71
2023/03/02 05:28:43;;;;;;;4.40;2.30;;;1.50;99.90;;;;;;5011575;28;20436;-71
2023/03/02 05:31:16;;;;;;;11.73;3.57;;;1.50;99.90;;;;;;5010705;28;20520;-71
2023/03/02 05:33:46;;;;;;;3.20;2.60;;;1.60;99.90;;;;;;5005987;28;20465;-71
2023/03/02 05:36:15;;;;;;;4.10;3.30;;;1.70;99.90;;;;;;5010277;28;20610;-71
2023/03/02 05:38:45;;;;;;;4.87;3.70;;;1.80;99.90;;;;;;5002199;28;20439;-71
2023/03/02 05:41:12;;;;;;;2.70;2.03;;;1.70;99.90;;;;;;5004479;28;20501;-71
2023/03/02 05:43:39;;;;;;;2.80;2.57;;;1.70;99.90;;;;;;5012396;28;20451;-71
2023/03/02 05:46:06;;;;;;;3.70;2.80;;;1.60;99.90;;;;;;5013979;28;20463;-71
2023/03/02 05:48:33;;;;;;;6.30;3.37;;;1.60;99.90;;;;;;5004661;28;20657;-71
2023/03/02 05:51:02;;;;;;;3.97;2.90;;;1.50;99.90;;;;;;5011027;28;20472;-71
2023/03/02 05:53:29;;;;;;;13.47;2.70;;;1.40;99.90;;;;;;5009294;28;20549;-71
2023/03/02 05:55:56;;;;;;;4.50;3.70;;;1.50;99.90;;;;;;5009127;28;20478;-71
2023/03/02 05:58:23;;;;;;;5.50;3.70;;;1.50;99.90;;;;;;5006041;28;20461;-71
2023/03/02 06:00:50;;;;;;;8.87;3.13;;;1.60;99.90;;;;;;5010262;28;20519;-71
2023/03/02 06:03:17;;;;;;;3.93;3.03;;;1.50;99.90;;;;;;5009868;28;20460;-71
2023/03/02 06:05:49;;;;;;;5.70;2.53;;;1.60;99.90;;;;;;5012333;28;20479;-71
2023/03/02 06:08:18;;;;;;;5.80;3.10;;;1.60;99.90;;;;;;5017841;28;20829;-71
2023/03/02 06:10:45;;;;;;;9.80;4.00;;;1.40;99.90;;;;;;5011018;28;20452;-70
2023/03/02 06:13:12;;;;;;;11.17;3.60;;;1.50;99.90;;;;;;5012142;28;20544;-71
2023/03/02 06:15:39;;;;;;;2.90;2.70;;;1.40;99.90;;;;;;5011434;28;20533;-71
2023/03/02 06:18:06;;;;;;;3.50;2.63;;;1.30;99.90;;;;;;5007960;28;20828;-71
2023/03/02 06:20:34;;;;;;;6.80;3.20;;;1.20;99.90;;;;;;5003775;28;20485;-71
2023/03/02 06:23:01;;;;;;;5.77;2.17;;;1.20;99.90;;;;;;5010877;28;20879;-71
2023/03/02 06:25:30;;;;;;;4.70;3.37;;;1.20;99.90;;;;;;5004052;28;20512;-70
2023/03/02 06:27:57;;;;;;;4.10;2.57;;;1.10;99.90;;;;;;5004474;28;20893;-70
2023/03/02 06:30:26;;;;;;;8.60;5.40;;;1.20;99.90;;;;;;5004511;28;20482;-70
2023/03/02 06:32:54;;;;;;;3.40;3.10;;;1.30;99.90;;;;;;5004936;28;20432;-71
2023/03/02 06:35:22;;;;;;;5.00;2.67;;;1.20;99.90;;;;;;5007852;28;20464;-71
2023/03/02 06:37:49;;;;;;;5.13;3.00;;;1.30;99.90;;;;;;5006006;28;20573;-70
2023/03/02 06:40:16;;;;;;;5.80;3.73;;;1.40;99.90;;;;;;5004192;28;20516;-70
2023/03/02 06:42:45;;;;;;;3.53;2.10;;;1.30;99.90;;;;;;5004141;28;20969;-68
2023/03/02 06:45:12;;;;;;;6.10;4.53;;;1.20;99.90;;;;;;5011966;28;20943;-70
2023/03/02 06:47:39;;;;;;;3.60;2.00;;;1.00;99.90;;;;;;5003584;28;20453;-70
2023/03/02 06:50:07;;;;;;;6.23;2.70;;;1.00;99.90;;;;;;5006276;28;20953;-70
2023/03/02 06:52:35;;;;;;;2.97;2.47;;;1.00;99.90;;;;;;5011163;28;20427;-70
2023/03/02 06:55:01;;;;;;;4.27;3.87;;;0.90;99.90;;;;;;5003950;28;20534;-70
2023/03/02 06:57:32;;;;;;;2.83;2.07;;;1.00;99.90;;;;;;4998040;28;20484;-71
2023/03/02 07:00:01;;;;;;;7.67;3.57;;;1.10;99.90;;;;;;5010746;28;20484;-70
2023/03/02 07:02:31;;;;;;;3.33;3.00;;;1.30;99.90;;;;;;5001216;28;20478;-70
2023/03/02 07:04:57;;;;;;;3.40;2.27;;;1.50;99.90;;;;;;5008831;28;20476;-70
2023/03/02 07:07:24;;;;;;;5.10;3.03;;;1.50;99.90;;;;;;5003510;28;20477;-71
2023/03/02 07:09:51;;;;;;;3.23;2.03;;;1.70;99.90;;;;;;5010351;28;20544;-71
2023/03/02 07:12:18;;;;;;;3.50;1.97;;;1.80;99.90;;;;;;5003283;28;20909;-70
2023/03/02 07:14:47;;;;;;;3.40;2.13;;;1.70;99.90;;;;;;5006752;28;20598;-70
2023/03/02 07:17:16;;;;;;;2.50;2.30;;;1.80;99.90;;;;;;5007923;28;20470;-70
2023/03/02 07:19:43;;;;;;;4.80;3.27;;;1.70;99.90;;;;;;4996781;28;20492;-70
2023/03/02 07:22:10;;;;;;;4.63;2.93;;;1.70;99.90;;;;;;5010789;28;20805;-69
2023/03/02 07:24:37;;;;;;;5.63;3.07;;;1.70;99.90;;;;;;5006567;28;20424;-70
2023/03/02 07:27:04;;;;;;;4.13;2.60;;;1.80;99.90;;;;;;5003602;28;20482;-70
2023/03/02 07:29:30;;;;;;;6.00;2.27;;;1.80;99.90;;;;;;5005561;28;20475;-70
2023/03/02 07:31:59;;;;;;;3.87;1.97;;;1.90;99.90;;;;;;5008722;28;20484;-70
2023/03/02 07:34:33;;;;;;;1.83;1.67;;;1.90;99.90;;;;;;5009510;28;20439;-71
2023/03/02 07:37:00;;;;;;;4.93;3.70;;;1.80;99.90;;;;;;5009647;28;20888;-70
2023/03/02 07:39:27;;;;;;;3.30;2.03;;;1.90;99.90;;;;;;5000403;28;20486;-70
2023/03/02 07:41:58;;;;;;;3.33;3.03;;;2.10;99.90;;;;;;5002731;28;20425;-70
2023/03/02 07:44:25;;;;;;;7.63;3.03;;;2.30;99.90;;;;;;5004487;28;20485;-71
2023/03/02 07:46:52;;;;;;;10.07;3.43;;;2.50;99.90;;;;;;5006950;28;20477;-71
2023/03/02 07:49:19;;;;;;;4.53;2.83;;;2.60;99.90;;;;;;5004296;28;20462;-71
2023/03/02 07:51:48;;;;;;;3.00;2.67;;;2.90;99.90;;;;;;4995855;28;20461;-71
2023/03/02 07:54:14;;;;;;;10.80;4.63;;;3.20;99.90;;;;;;5013800;28;20561;-71
2023/03/02 07:56:41;;;;;;;4.43;2.77;;;3.80;99.90;;;;;;5025679;28;20505;-70
2023/03/02 07:59:08;;;;;;;13.07;4.13;;;4.30;99.90;;;;;;5009703;28;20461;-71
2023/03/02 08:01:35;;;;;;;5.80;2.30;;;5.10;99.90;;;;;;5010717;28;20458;-71
2023/03/02 08:04:02;;;;;;;7.23;4.83;;;5.30;99.90;;;;;;5005628;28;20541;-70
2023/03/02 08:06:30;;;;;;;6.80;4.20;;;5.00;99.90;;;;;;5015163;28;20484;-71
2023/03/02 08:09:01;;;;;;;8.37;3.93;;;4.80;99.90;;;;;;5008617;28;20944;-71
2023/03/02 08:11:28;;;;;;;8.20;5.13;;;4.70;99.90;;;;;;4997052;28;20453;-71
2023/03/02 08:13:56;;;;;;;4.40;4.00;;;4.70;99.90;;;;;;5004221;28;20906;-70
2023/03/02 08:16:25;;;;;;;7.83;3.93;;;4.60;99.90;;;;;;5006999;28;20477;-70
2023/03/02 08:18:52;;;;;;;7.27;5.10;;;4.40;99.90;;;;;;5011434;28;20439;-70
2023/03/02 08:21:21;;;;;;;6.80;5.10;;;5.00;99.90;;;;;;5010806;28;20459;-71
2023/03/02 08:23:49;;;;;;;6.70;4.70;;;5.60;99.90;;;;;;5001309;28;20939;-71
2023/03/02 08:26:18;;;;;;;5.43;4.13;;;5.80;99.90;;;;;;5007275;28;20485;-71
2023/03/02 08:28:47;;;;;;;4.63;3.70;;;6.00;99.90;;;;;;5001052;28;20545;-72
2023/03/02 08:31:16;;;;;;;5.77;3.77;;;6.20;99.90;;;;;;5006984;28;20859;-70
2023/03/02 08:33:44;;;;;;;4.80;3.67;;;6.40;99.90;;;;;;5005783;28;20460;-71
2023/03/02 08:36:16;;;;;;;1.97;1.87;;;6.50;99.90;;;;;;5007225;28;20470;-70
2023/03/02 08:38:44;;;;;;;4.03;3.10;;;6.20;99.90;;;;;;4996560;28;20548;-71
2023/03/02 08:41:13;;;;;;;4.23;2.93;;;6.30;99.90;;;;;;5004239;28;21026;-71
2023/03/02 08:43:41;;;;;;;4.40;3.60;;;6.80;99.90;;;;;;5008548;28;20446;-71
2023/03/02 08:46:10;;;;;;;11.90;4.27;;;7.10;99.90;;;;;;5001001;28;20461;-71
2023/03/02 08:48:37;;;;;;;9.03;3.87;;;7.70;99.90;;;;;;5005542;28;20464;-71
2023/03/02 08:51:06;;;;;;;10.63;5.10;;;8.70;98.30;;;;;;4997324;28;20512;-71
2023/03/02 08:53:36;;;;;;;6.40;3.63;;;9.40;95.80;;;;;;5009600;28;20870;-72
2023/03/02 08:56:06;;;;;;;5.57;3.97;;;9.60;93.60;;;;;;5005873;28;21068;-71
2023/03/02 08:58:33;;;;;;;8.43;4.37;;;9.90;93.30;;;;;;4998993;28;20483;-72
2023/03/02 09:01:01;;;;;;;8.83;5.13;;;10.00;90.80;;;;;;5002076;28;20914;-71
2023/03/02 09:03:28;;;;;;;5.97;4.70;;;10.50;90.50;;;;;;5009622;28;20473;-69
2023/03/02 09:05:55;;;;;;;3.93;3.17;;;10.80;89.10;;;;;;5005097;28;20492;-71
2023/03/02 09:08:22;;;;;;;19.77;3.90;;;11.50;88.50;;;;;;5011788;28;20515;-70
2023/03/02 09:10:49;;;;;;;5.50;3.73;;;11.40;86.50;;;;;;5007800;28;20552;-71
2023/03/02 09:13:15;;;;;;;3.67;2.67;;;12.20;85.00;;;;;;5003547;28;20592;-71
2023/03/02 09:15:42;;;;;;;5.70;4.00;;;12.60;78.30;;;;;;5007737;28;20835;-70
2023/03/02 09:18:10;;;;;;;5.80;4.40;;;11.40;79.10;;;;;;5015240;28;20497;-70
2023/03/02 09:20:37;;;;;;;5.80;3.57;;;11.90;80.00;;;;;;5009230;28;20496;-70
2023/03/02 09:23:05;;;;;;;14.57;4.53;;;12.00;75.60;;;;;;5007739;28;20453;-70
2023/03/02 09:25:32;;;;;;;7.47;4.03;;;12.20;76.60;;;;;;5007605;28;20489;-70
2023/03/02 09:27:59;;;;;;;5.77;3.20;;;13.10;72.50;;;;;;5013997;28;20560;-70
2023/03/02 09:30:26;;;;;;;6.17;4.53;;;13.10;68.90;;;;;;5012142;28;20915;-69
2023/03/02 09:32:53;;;;;;;5.23;3.77;;;12.70;68.70;;;;;;5008024;28;20533;-70
2023/03/02 09:35:21;;;;;;;5.50;3.17;;;12.50;69.10;;;;;;5012181;28;20544;-70
2023/03/02 09:37:48;;;;;;;3.10;2.07;;;12.70;65.80;;;;;;5008002;28;20488;-71
2023/03/02 09:40:24;;;;;;;4.20;2.87;;;12.00;67.40;;;;;;4974458;28;20576;-70
2023/03/02 09:43:14;;;;;;;6.07;3.17;;;11.80;66.40;;;;;;5005697;28;20511;-70
2023/03/02 09:45:56;;;;;;;15.43;5.17;;;12.20;67.90;;;;;;5010839;28;20471;-70
2023/03/02 09:48:37;;;;;;;7.20;3.97;;;13.10;67.10;;;;;;5006309;28;20526;-70
2023/03/02 09:51:28;;;;;;;7.43;3.90;;;14.30;65.80;;;;;;5001832;28;20536;-69
2023/03/02 09:54:02;;;;;;;8.03;4.20;;;13.80;61.10;;;;;;4990203;28;20532;-70
2023/03/02 09:56:30;;;;;;;6.30;3.37;;;13.80;61.30;;;;;;5011860;28;20563;-70
2023/03/02 09:59:02;;;;;;;6.50;4.10;;;13.20;61.10;;;;;;5008997;28;20473;-70
2023/03/02 10:01:36;;;;;;;5.70;4.27;;;13.20;60.50;;;;;;5008942;28;20501;-69
2023/03/02 10:04:13;;;;;;;5.30;4.60;;;13.60;62.10;;;;;;5009985;28;20850;-70
2023/03/02 10:06:41;;;;;;;6.90;3.93;;;14.30;59.90;;;;;;5004519;28;21073;-70
2023/03/02 10:09:10;;;;;;;9.70;3.90;;;13.70;59.80;;;;;;5014172;28;20478;-70
2023/03/02 10:11:50;;;;;;;9.03;4.20;;;13.70;60.10;;;;;;5006864;28;20453;-70
2023/03/02 10:14:24;;;;;;;3.77;2.87;;;13.80;60.30;;;;;;5010583;28;20480;-70
2023/03/02 10:17:01;;;;;;;9.67;4.90;;;14.90;60.10;;;;;;5011674;28;20479;-69
2023/03/02 10:19:33;;;;;;;7.67;4.80;;;15.70;58.10;;;;;;5011629;28;20540;-70
2023/03/02 10:22:11;;;;;;;8.70;3.50;;;15.80;57.70;;;;;;4974958;28;20857;-70
2023/03/02 10:24:40;;;;;;;6.23;3.80;;;15.00;57.00;;;;;;5024877;28;20477;-69
2023/03/02 10:27:17;;;;;;;5.27;4.33;;;14.80;58.00;;;;;;5008743;28;20561;-70
2023/03/02 10:29:50;;;;;;;8.63;3.80;;;15.30;58.10;;;;;;5004887;28;20446;-70
2023/03/02 10:32:22;;;;;;;6.50;4.83;;;15.20;56.90;;;;;;5010913;28;20440;-70
2023/03/02 10:34:50;;;;;;;8.27;4.77;;;15.00;57.60;;;;;;5013113;28;20465;-70
2023/03/02 10:37:24;;;;;;;6.30;3.87;;;15.60;56.40;;;;;;5011858;28;20477;-71
2023/03/02 10:39:51;;;;;;;6.77;4.90;;;15.80;57.30;;;;;;5001133;28;20486;-71
2023/03/02 10:42:24;;;;;;;4.50;3.10;;;16.60;56.60;;;;;;5006766;28;20483;-70
2023/03/02 10:44:55;;;;;;;9.93;5.60;;;17.90;54.10;;;;;;5006883;28;20513;-71
2023/03/02 10:47:24;;;;;;;4.33;3.70;;;18.10;54.40;;;;;;5004347;28;20486;-71
2023/03/02 10:49:52;;;;;;;8.33;5.00;;;17.80;52.40;;;;;;5002092;28;20554;-70
2023/03/02 10:52:23;;;;;;;11.10;3.73;;;16.30;52.50;;;;;;5009190;28;20472;-71
2023/03/02 10:55:01;;;;;;;6.30;3.90;;;16.50;53.50;;;;;;5006178;28;20556;-70
2023/03/02 10:57:31;;;;;;;8.33;4.93;;;16.30;52.60;;;;;;5010671;28;20786;-71
2023/03/02 11:00:01;;;;;;;6.70;3.90;;;16.80;53.60;;;;;;5002972;28;20473;-70
2023/03/02 11:02:29;;;;;;;6.80;3.97;;;16.80;53.90;;;;;;5007726;28;20482;-68
2023/03/02 11:04:58;;;;;;;4.70;3.87;;;17.70;54.10;;;;;;5003601;28;20493;-70
2023/03/02 11:07:30;;;;;;;13.87;5.07;;;18.70;52.70;;;;;;4998816;28;20564;-70
2023/03/02 11:10:00;;;;;;;7.23;3.37;;;18.40;52.30;;;;;;5009848;28;20473;-70
2023/03/02 11:12:28;;;;;;;5.90;4.20;;;18.00;52.00;;;;;;5011330;28;20533;-70
2023/03/02 11:15:16;;;;;;;7.23;4.77;;;17.90;53.10;;;;;;5022920;28;20465;-71
2023/03/02 11:17:45;;;;;;;5.13;3.97;;;18.80;52.10;;;;;;5014694;28;20531;-71
2023/03/02 11:20:20;;;;;;;11.40;4.80;;;19.40;50.30;;;;;;5008807;28;20901;-70
2023/03/02 11:22:59;;;;;;;7.53;3.93;;;18.60;50.50;;;;;;5004047;28;20453;-71
2023/03/02 11:25:31;;;;;;;5.53;4.40;;;18.90;50.70;;;;;;4995386;28;20460;-70
2023/03/02 11:28:04;;;;;;;11.50;5.60;;;18.60;50.00;;;;;;5004792;28;20562;-71
2023/03/02 11:30:36;;;;;;;5.37;4.10;;;19.00;50.50;;;;;;5010094;28;20504;-70
2023/03/02 11:33:11;;;;;;;10.33;4.60;;;19.40;49.10;;;;;;4999982;28;20537;-70
2023/03/02 11:35:45;;;;;;;6.20;3.90;;;19.40;49.50;;;;;;5002553;28;20543;-70
2023/03/02 11:38:17;;;;;;;7.20;3.97;;;19.00;47.40;;;;;;5006885;28;20528;-70
2023/03/02 11:40:49;;;;;;;5.03;3.47;;;19.50;48.00;;;;;;5014009;28;20491;-71
2023/03/02 11:43:16;;;;;;;4.87;3.40;;;20.50;47.00;;;;;;5005875;28;20479;-70
2023/03/02 11:45:46;;;;;;;6.67;4.33;;;20.20;45.10;;;;;;5007016;28;20461;-70
2023/03/02 11:48:21;;;;;;;6.67;4.87;;;19.20;46.60;;;;;;5008373;28;20461;-71
2023/03/02 11:50:54;;;;;;;4.23;3.50;;;18.60;48.20;;;;;;5001420;28;20507;-70
2023/03/02 11:53:28;;;;;;;7.27;3.93;;;18.90;48.30;;;;;;5001744;28;20490;-70
2023/03/02 11:55:55;;;;;;;4.83;4.20;;;19.20;48.80;;;;;;5006489;28;20449;-71
2023/03/02 11:58:26;;;;;;;6.23;3.60;;;19.90;47.70;;;;;;5008951;28;20461;-70
2023/03/02 12:00:54;;;;;;;6.90;4.80;;;20.20;48.30;;;;;;5006680;28;20505;-71
2023/03/02 12:03:36;;;;;;;5.43;4.60;;;20.40;48.30;;;;;;5005434;28;20467;-71
2023/03/02 12:06:06;;;;;;;9.20;5.23;;;20.60;48.90;;;;;;5003357;28;20481;-71
2023/03/02 12:08:38;;;;;;;5.83;3.90;;;20.90;49.00;;;;;;4999852;28;20536;-71
2023/03/02 12:11:08;;;;;;;8.30;6.17;;;20.80;47.80;;;;;;5009450;28;20449;-71
2023/03/02 12:13:38;;;;;;;9.60;6.00;;;20.60;48.10;;;;;;4985858;28;20450;-70
2023/03/02 12:16:18;;;;;;;6.83;4.40;;;20.60;47.60;;;;;;5014068;28;20474;-71
2023/03/02 12:18:48;;;;;;;5.30;4.37;;;21.10;47.60;;;;;;5013735;28;20513;-71
2023/03/02 12:21:18;;;;;;;8.20;4.53;;;21.30;46.20;;;;;;4998366;28;20985;-70
2023/03/02 12:24:02;;;;;;;4.53;4.13;;;20.90;45.30;;;;;;5003997;28;20457;-70
2023/03/02 12:26:36;;;;;;;7.50;4.00;;;21.30;46.30;;;;;;5008216;28;20493;-70
2023/03/02 12:29:06;;;;;;;5.73;4.33;;;21.10;47.00;;;;;;5005864;28;20896;-70
2023/03/02 12:31:44;;;;;;;5.00;3.73;;;21.60;47.00;;;;;;5006395;28;20895;-70
2023/03/02 12:34:32;;;;;;;5.70;3.67;;;20.90;43.90;;;;;;5002820;28;20548;-70
2023/03/02 12:37:03;;;;;;;6.77;5.27;;;21.70;44.80;;;;;;5005808;28;20477;-70
2023/03/02 12:39:47;;;;;;;7.87;4.47;;;21.70;46.90;;;;;;5014817;28;20465;-70
2023/03/02 12:42:47;;;;;;;5.60;4.07;;;20.20;47.80;;;;;;5007053;28;20931;-71
2023/03/02 12:45:41;;;;;;;4.33;3.33;;;19.60;47.80;;;;;;5015211;28;20882;-71
2023/03/02 12:48:23;;;;;;;6.20;3.80;;;19.10;48.50;;;;;;5006780;28;20479;-73
2023/03/02 12:50:58;;;;;;;5.50;4.50;;;19.60;47.10;;;;;;5011785;28;20478;-71
2023/03/02 12:53:25;;;;;;;5.17;4.40;;;19.80;49.30;;;;;;5023198;28;20770;-69
2023/03/02 12:55:54;;;;;;;8.13;4.63;;;21.00;48.10;;;;;;5024756;28;20784;-70
2023/03/02 12:58:23;;;;;;;5.13;4.07;;;21.00;47.20;;;;;;5008929;28;20462;-71
2023/03/02 13:00:53;;;;;;;6.60;4.40;;;19.70;48.60;;;;;;5000873;28;20458;-71
2023/03/02 13:03:20;;;;;;;6.77;4.50;;;20.00;48.90;;;;;;5012434;28;20734;-70
2023/03/02 13:05:48;;;;;;;6.27;4.70;;;20.80;48.80;;;;;;5006069;28;20805;-70